Time;durP1;ratioP1;P1;durP2;ratioP2;P2;SDS_P1;SDS_P2;PMS_P1;PMS_P2;Temp;Humidity;BMP_temperature;BMP_pressure;BME280_temperature;BME280_humidity;BME280_pressure;Samples;Min_cycle;Max_cycle;Signal;HPM_P1;HPM_P2
2023/01/05 00:01:48;;;;;;;;;;;19.70;55.80;;;;;;6273413;22;43679;-67
2023/01/05 00:04:16;;;;;;;;;;;19.70;55.80;;;;;;6274301;22;43478;-67
2023/01/05 00:06:43;;;;;;;;;;;19.70;55.80;;;;;;6273410;22;43482;-67
2023/01/05 00:09:12;;;;;;;;;;;19.70;55.80;;;;;;6273414;22;43985;-67
2023/01/05 00:22:50;;;;;;;;;;;19.60;55.90;;;;;;6274055;22;43406;-67
2023/01/05 00:25:22;;;;;;;;;;;19.60;55.80;;;;;;6273880;22;43365;-67
2023/01/05 00:27:50;;;;;;;;;;;19.60;55.80;;;;;;6273617;22;43351;-67
2023/01/05 00:30:20;;;;;;;;;;;19.60;55.80;;;;;;6246073;22;44023;-67
2023/01/05 00:32:49;;;;;;;;;;;19.60;55.80;;;;;;6272999;22;43731;-67
2023/01/05 00:35:17;;;;;;;;;;;19.60;55.80;;;;;;6246432;22;43459;-67
2023/01/05 00:37:44;;;;;;;;;;;19.60;55.80;;;;;;6246461;22;43474;-67
2023/01/05 00:40:13;;;;;;;;;;;19.60;56.00;;;;;;6273179;22;43866;-67
2023/01/05 00:42:41;;;;;;;;;;;19.60;55.90;;;;;;6246159;22;43395;-67
2023/01/05 00:45:10;;;;;;;;;;;19.50;55.90;;;;;;6273659;22;43387;-66
2023/01/05 00:47:37;;;;;;;;;;;19.50;55.90;;;;;;6273185;22;43880;-67
2023/01/05 00:50:05;;;;;;;;;;;19.50;56.00;;;;;;6246630;22;43847;-67
2023/01/05 00:52:34;;;;;;;;;;;19.50;56.00;;;;;;6220417;22;43964;-67
2023/01/05 00:55:01;;;;;;;;;;;19.50;56.00;;;;;;6272754;22;43389;-67
2023/01/05 00:57:28;;;;;;;;;;;19.50;56.00;;;;;;6273852;22;43539;-67
2023/01/05 00:59:56;;;;;;;;;;;19.50;56.00;;;;;;6246552;22;43975;-67
2023/01/05 01:02:24;;;;;;;;;;;19.50;56.00;;;;;;6273107;22;43408;-67
2023/01/05 01:04:51;;;;;;;;;;;19.50;55.90;;;;;;6273002;22;43402;-67
2023/01/05 01:07:18;;;;;;;;;;;19.50;55.90;;;;;;6246038;22;43517;-67
2023/01/05 01:09:46;;;;;;;;;;;19.50;55.90;;;;;;6272580;22;43835;-67
2023/01/05 01:12:13;;;;;;;;;;;19.50;55.90;;;;;;6220681;22;43518;-67
2023/01/05 01:14:40;;;;;;;;;;;19.50;55.90;;;;;;6273730;22;43480;-67
2023/01/05 01:17:08;;;;;;;;;;;19.50;55.90;;;;;;6273263;22;43490;-67
2023/01/05 01:19:35;;;;;;;;;;;19.40;55.90;;;;;;6273411;22;43885;-67
2023/01/05 01:22:03;;;;;;;;;;;19.50;56.00;;;;;;6245327;22;43415;-67
2023/01/05 01:24:30;;;;;;;;;;;19.40;55.90;;;;;;6273434;22;43436;-67
2023/01/05 01:26:57;;;;;;;;;;;19.40;55.80;;;;;;6273672;22;43496;-67
2023/01/05 01:29:25;;;;;;;;;;;19.40;55.80;;;;;;6273184;22;43761;-67
2023/01/05 01:31:52;;;;;;;;;;;19.40;55.90;;;;;;6272744;22;43398;-66
2023/01/05 01:34:20;;;;;;;;;;;19.40;55.90;;;;;;6273626;22;43417;-67
2023/01/05 01:36:47;;;;;;;;;;;19.40;55.90;;;;;;6245387;22;43407;-67
2023/01/05 01:39:19;;;;;;;;;;;19.40;55.90;;;;;;6246066;22;43983;-67
2023/01/05 01:41:52;;;;;;;;;;;19.40;55.90;;;;;;6220603;22;43475;-67
2023/01/05 01:44:38;;;;;;;;;;;19.40;55.90;;;;;;6245984;22;43420;-67
2023/01/05 01:47:06;;;;;;;;;;;19.40;55.90;;;;;;6245944;22;43500;-67
2023/01/05 01:49:33;;;;;;;;;;;19.40;55.80;;;;;;6273044;22;43814;-67
2023/01/05 01:52:05;;;;;;;;;;;19.40;55.80;;;;;;6273534;22;43480;-67
2023/01/05 01:54:32;;;;;;;;;;;19.40;55.80;;;;;;6273041;22;43422;-67
2023/01/05 01:57:00;;;;;;;;;;;19.30;55.80;;;;;;6273000;22;43459;-67
2023/01/05 01:59:27;;;;;;;;;;;19.40;55.80;;;;;;6245814;22;43991;-67
2023/01/05 02:01:56;;;;;;;;;;;19.40;55.80;;;;;;6246452;22;43942;-67
2023/01/05 02:04:25;;;;;;;;;;;19.40;55.80;;;;;;6245440;22;43514;-67
2023/01/05 02:06:52;;;;;;;;;;;19.30;55.80;;;;;;6245372;22;43479;-67
2023/01/05 02:09:19;;;;;;;;;;;19.40;55.80;;;;;;6272790;22;43758;-67
2023/01/05 02:11:48;;;;;;;;;;;19.30;55.80;;;;;;6245204;22;43380;-67
2023/01/05 02:14:21;;;;;;;;;;;19.30;55.90;;;;;;6273648;22;43379;-67
2023/01/05 02:17:03;;;;;;;;;;;19.30;55.80;;;;;;6274204;22;43914;-67
2023/01/05 02:19:37;;;;;;;;;;;19.30;55.80;;;;;;6246684;22;43839;-67
2023/01/05 02:22:13;;;;;;;;;;;19.30;55.80;;;;;;6274574;22;43858;-66
2023/01/05 02:24:53;;;;;;;;;;;19.30;55.80;;;;;;6275163;22;43430;-67
2023/01/05 02:27:23;;;;;;;;;;;19.20;55.80;;;;;;6246420;22;43573;-67
2023/01/05 02:29:51;;;;;;;;;;;19.20;55.80;;;;;;6221440;22;45634;-67
2023/01/05 02:32:21;;;;;;;;;;;19.20;55.80;;;;;;6246629;22;43375;-68
2023/01/05 02:34:51;;;;;;;;;;;19.20;55.80;;;;;;6274588;22;43376;-67
2023/01/05 02:37:27;;;;;;;;;;;19.20;55.80;;;;;;6246717;22;43573;-67
2023/01/05 02:39:58;;;;;;;;;;;19.20;55.80;;;;;;6272308;22;44336;-67
2023/01/05 02:42:27;;;;;;;;;;;19.20;55.80;;;;;;6247342;22;43432;-67
2023/01/05 02:44:54;;;;;;;;;;;19.20;55.80;;;;;;6247701;22;43446;-67
2023/01/05 02:47:26;;;;;;;;;;;19.20;55.80;;;;;;6246763;22;43494;-67
2023/01/05 02:49:58;;;;;;;;;;;19.10;55.80;;;;;;6247409;22;43994;-67
2023/01/05 02:52:25;;;;;;;;;;;19.20;55.80;;;;;;6246971;22;43408;-66
2023/01/05 02:54:58;;;;;;;;;;;19.10;55.80;;;;;;6273753;22;43393;-66
2023/01/05 02:57:49;;;;;;;;;;;19.20;55.80;;;;;;6274384;22;43428;-67
2023/01/05 03:00:25;;;;;;;;;;;19.20;55.80;;;;;;6246246;22;43998;-67
2023/01/05 03:02:57;;;;;;;;;;;19.10;55.80;;;;;;6246663;22;43466;-67
2023/01/05 03:05:28;;;;;;;;;;;19.10;55.80;;;;;;6247737;22;43357;-67
2023/01/05 03:08:05;;;;;;;;;;;19.10;55.80;;;;;;6247163;22;43483;-67
2023/01/05 03:13:54;;;;;;;;;;;19.10;55.90;;;;;;6246752;22;43361;-67
2023/01/05 03:16:25;;;;;;;;;;;19.00;55.90;;;;;;6246644;22;43351;-66
2023/01/05 03:35:43;;;;;;;;;;;18.90;56.00;;;;;;6273937;22;43735;-66
2023/01/05 03:38:10;;;;;;;;;;;18.90;56.00;;;;;;6246258;22;43467;-67
2023/01/05 03:40:44;;;;;;;;;;;18.90;56.00;;;;;;6247054;22;43471;-66
2023/01/05 03:43:13;;;;;;;;;;;18.90;56.00;;;;;;6246640;22;43996;-67
2023/01/05 03:45:51;;;;;;;;;;;18.90;56.00;;;;;;6246740;22;43459;-67
2023/01/05 03:48:22;;;;;;;;;;;18.90;56.00;;;;;;6247336;22;43803;-67
2023/01/05 03:50:50;;;;;;;;;;;18.90;56.10;;;;;;6246349;22;43440;-67
2023/01/05 03:53:19;;;;;;;;;;;18.90;56.10;;;;;;6246511;22;44641;-67
2023/01/05 03:55:47;;;;;;;;;;;18.90;56.10;;;;;;6246988;22;43422;-67
2023/01/05 03:58:15;;;;;;;;;;;18.90;56.00;;;;;;6246502;22;43374;-67
2023/01/05 04:00:46;;;;;;;;;;;18.90;56.00;;;;;;6247503;22;43921;-67
2023/01/05 04:03:16;;;;;;;;;;;18.80;56.00;;;;;;6246891;22;45212;-67
2023/01/05 04:05:44;;;;;;;;;;;18.80;56.00;;;;;;6246757;22;43400;-67
2023/01/05 04:08:11;;;;;;;;;;;18.80;56.10;;;;;;6273990;22;43426;-67
2023/01/05 04:10:39;;;;;;;;;;;18.80;56.00;;;;;;6246170;22;43517;-67
2023/01/05 04:13:07;;;;;;;;;;;18.80;56.10;;;;;;6245829;22;44012;-67
2023/01/05 04:15:36;;;;;;;;;;;18.80;56.10;;;;;;6246859;22;43436;-67
2023/01/05 04:18:05;;;;;;;;;;;18.80;56.10;;;;;;6240448;22;43341;-67
2023/01/05 04:20:32;;;;;;;;;;;18.80;56.10;;;;;;6241447;22;43585;-67
2023/01/05 04:23:01;;;;;;;;;;;18.70;56.10;;;;;;6215919;22;44948;-67
2023/01/05 04:25:29;;;;;;;;;;;18.80;56.20;;;;;;6241486;22;43833;-67
2023/01/05 04:28:03;;;;;;;;;;;18.70;56.10;;;;;;6242754;22;43404;-67
2023/01/05 04:30:32;;;;;;;;;;;18.80;56.10;;;;;;6241427;22;43466;-67
2023/01/05 04:33:00;;;;;;;;;;;18.80;56.10;;;;;;6238898;22;44121;-67
2023/01/05 04:35:28;;;;;;;;;;;18.80;56.20;;;;;;6216064;22;43359;-67
2023/01/05 04:37:56;;;;;;;;;;;18.70;56.10;;;;;;6241010;22;43374;-67
2023/01/05 04:40:23;;;;;;;;;;;18.70;56.10;;;;;;6240955;22;43423;-67
2023/01/05 04:42:53;;;;;;;;;;;18.70;56.20;;;;;;6240598;22;43925;-67
2023/01/05 04:45:20;;;;;;;;;;;18.70;56.20;;;;;;6242383;22;43389;-67
2023/01/05 04:47:48;;;;;;;;;;;18.70;56.20;;;;;;6240919;22;43430;-67
2023/01/05 04:50:19;;;;;;;;;;;18.70;56.20;;;;;;6241142;22;43543;-67
2023/01/05 04:52:48;;;;;;;;;;;18.70;56.20;;;;;;6240136;22;43775;-67
2023/01/05 04:55:17;;;;;;;;;;;18.70;56.20;;;;;;6241066;22;43471;-67
2023/01/05 04:57:45;;;;;;;;;;;18.70;56.30;;;;;;6240651;22;43441;-67
2023/01/05 05:00:15;;;;;;;;;;;18.60;56.20;;;;;;6240304;22;43721;-67
2023/01/05 05:02:43;;;;;;;;;;;18.70;56.30;;;;;;6240541;22;43935;-67
2023/01/05 05:05:13;;;;;;;;;;;18.70;56.30;;;;;;6240951;22;43415;-67
2023/01/05 05:07:41;;;;;;;;;;;18.70;56.20;;;;;;6241004;22;43399;-67
2023/01/05 05:10:10;;;;;;;;;;;18.70;56.30;;;;;;6241028;22;43565;-67
2023/01/05 05:12:41;;;;;;;;;;;18.70;56.30;;;;;;6241324;22;44643;-67
2023/01/05 05:15:09;;;;;;;;;;;18.70;56.20;;;;;;6240321;22;43403;-67
2023/01/05 05:17:41;;;;;;;;;;;18.70;56.20;;;;;;6240570;22;43430;-67
2023/01/05 05:20:11;;;;;;;;;;;18.60;56.20;;;;;;6241482;22;43392;-67
2023/01/05 05:22:38;;;;;;;;;;;18.60;56.30;;;;;;6241833;22;43963;-67
2023/01/05 05:25:08;;;;;;;;;;;18.60;56.30;;;;;;6239699;22;43404;-68
2023/01/05 05:27:40;;;;;;;;;;;18.60;56.30;;;;;;6241607;22;43460;-67
2023/01/05 05:30:08;;;;;;;;;;;18.60;56.30;;;;;;6241835;22;43423;-67
2023/01/05 05:32:35;;;;;;;;;;;18.60;56.30;;;;;;6242414;22;43749;-67
2023/01/05 05:35:10;;;;;;;;;;;18.60;56.30;;;;;;6240557;22;43428;-67
2023/01/05 05:37:37;;;;;;;;;;;18.50;56.30;;;;;;6242939;22;43474;-68
2023/01/05 05:40:04;;;;;;;;;;;18.50;56.30;;;;;;6242931;22;43405;-68
2023/01/05 05:42:32;;;;;;;;;;;18.60;56.40;;;;;;6241718;22;44007;-67
2023/01/05 05:45:00;;;;;;;;;;;18.60;56.40;;;;;;6242247;22;43732;-68
2023/01/05 05:47:27;;;;;;;;;;;18.50;56.40;;;;;;6242714;22;43438;-68
2023/01/05 05:49:54;;;;;;;;;;;18.50;56.40;;;;;;6242456;22;43486;-68
2023/01/05 05:52:22;;;;;;;;;;;18.50;56.60;;;;;;6241307;22;44619;-68
2023/01/05 05:54:50;;;;;;;;;;;18.50;56.50;;;;;;6243596;22;43347;-68
2023/01/05 05:57:17;;;;;;;;;;;18.50;57.10;;;;;;6243475;22;44013;-68
2023/01/05 05:59:44;;;;;;;;;;;18.50;56.50;;;;;;6241553;22;43510;-68
2023/01/05 06:02:12;;;;;;;;;;;18.50;56.50;;;;;;6242337;22;43733;-68
2023/01/05 06:04:39;;;;;;;;;;;18.50;56.40;;;;;;6241815;22;43428;-68
2023/01/05 06:07:06;;;;;;;;;;;18.50;56.40;;;;;;6242978;22;43372;-68
2023/01/05 06:09:34;;;;;;;;;;;18.50;56.40;;;;;;6243555;22;43418;-68
2023/01/05 06:12:01;;;;;;;;;;;18.50;56.40;;;;;;6242388;22;43945;-68
2023/01/05 06:14:29;;;;;;;;;;;18.50;56.40;;;;;;6244177;22;43359;-68
2023/01/05 06:16:56;;;;;;;;;;;18.50;56.40;;;;;;6247653;22;43488;-68
2023/01/05 06:19:23;;;;;;;;;;;18.50;56.40;;;;;;6269527;22;43474;-69
2023/01/05 06:21:50;;;;;;;;;;;18.50;56.40;;;;;;6246013;22;45704;-68
2023/01/05 06:24:18;;;;;;;;;;;18.50;56.40;;;;;;6273881;22;43306;-68
2023/01/05 06:26:46;;;;;;;;;;;18.50;56.40;;;;;;6274084;22;43453;-69
2023/01/05 06:29:13;;;;;;;;;;;18.50;56.40;;;;;;6273922;22;43414;-69
2023/01/05 06:31:40;;;;;;;;;;;18.50;56.40;;;;;;6271980;22;43775;-67
2023/01/05 06:34:08;;;;;;;;;;;18.50;56.40;;;;;;6273579;22;43375;-68
2023/01/05 06:36:35;;;;;;;;;;;18.50;56.40;;;;;;6274060;22;43432;-68
2023/01/05 06:39:02;;;;;;;;;;;18.50;56.40;;;;;;6272401;22;43511;-68
2023/01/05 06:41:30;;;;;;;;;;;18.50;56.40;;;;;;6273127;22;44926;-69
2023/01/05 06:43:57;;;;;;;;;;;18.50;56.40;;;;;;6273718;22;43464;-69
2023/01/05 06:46:24;;;;;;;;;;;18.50;56.40;;;;;;6273962;22;43407;-69
2023/01/05 06:48:51;;;;;;;;;;;18.60;56.30;;;;;;6273205;22;43562;-68
2023/01/05 06:51:19;;;;;;;;;;;18.60;56.30;;;;;;6273728;22;43554;-68
2023/01/05 06:53:46;;;;;;;;;;;18.60;56.30;;;;;;6273232;22;43699;-68
2023/01/05 06:56:13;;;;;;;;;;;18.50;56.20;;;;;;6274370;22;43374;-67
2023/01/05 06:58:41;;;;;;;;;;;18.60;56.40;;;;;;6274081;22;43509;-67
2023/01/05 07:01:08;;;;;;;;;;;18.60;56.40;;;;;;6272850;22;43762;-68
2023/01/05 07:03:36;;;;;;;;;;;18.60;56.40;;;;;;6274022;22;43482;-68
2023/01/05 07:06:03;;;;;;;;;;;18.60;56.30;;;;;;6274435;22;43382;-67
2023/01/05 07:08:37;;;;;;;;;;;18.60;56.30;;;;;;6273172;22;43966;-66
2023/01/05 07:11:04;;;;;;;;;;;18.60;56.30;;;;;;6273993;22;43752;-62
2023/01/05 07:13:32;;;;;;;;;;;18.60;56.30;;;;;;6273537;22;43547;-66
2023/01/05 07:15:59;;;;;;;;;;;18.60;56.40;;;;;;6274488;22;43401;-65
2023/01/05 07:18:26;;;;;;;;;;;18.60;56.30;;;;;;6273122;22;43563;-65
2023/01/05 07:20:54;;;;;;;;;;;18.60;56.30;;;;;;6272141;22;44352;-65
2023/01/05 07:23:21;;;;;;;;;;;18.60;56.30;;;;;;6273598;22;43402;-65
2023/01/05 07:25:48;;;;;;;;;;;18.60;56.30;;;;;;6274364;22;43395;-65
2023/01/05 07:28:16;;;;;;;;;;;18.50;56.30;;;;;;6273505;22;43585;-65
2023/01/05 07:30:49;;;;;;;;;;;18.50;56.30;;;;;;6272850;22;44145;-65
2023/01/05 07:33:16;;;;;;;;;;;18.50;56.40;;;;;;6274124;22;43418;-64
2023/01/05 07:35:43;;;;;;;;;;;18.50;57.00;;;;;;6274286;22;43361;-65
2023/01/05 07:38:11;;;;;;;;;;;18.50;56.30;;;;;;6273671;22;43462;-65
2023/01/05 07:40:38;;;;;;;;;;;18.50;56.30;;;;;;6273964;22;45093;-65
2023/01/05 07:43:06;;;;;;;;;;;18.60;56.30;;;;;;6272989;22;43416;-65
2023/01/05 07:45:34;;;;;;;;;;;18.50;56.30;;;;;;6274287;22;43352;-65
2023/01/05 07:48:01;;;;;;;;;;;18.50;56.30;;;;;;6274216;22;43651;-65
2023/01/05 07:50:29;;;;;;;;;;;18.50;56.40;;;;;;6245929;22;45960;-65
2023/01/05 07:52:57;;;;;;;;;;;18.50;56.40;;;;;;6246408;22;43449;-65
2023/01/05 07:55:24;;;;;;;;;;;18.50;56.30;;;;;;6274373;22;43449;-65
2023/01/05 07:57:52;;;;;;;;;;;18.50;56.30;;;;;;6273087;22;43434;-65
2023/01/05 08:00:19;;;;;;;;;;;18.60;56.20;;;;;;6273813;22;44758;-65
2023/01/05 08:02:46;;;;;;;;;;;18.60;56.20;;;;;;6273403;22;43407;-65
2023/01/05 08:05:14;;;;;;;;;;;18.60;56.20;;;;;;6273431;22;43349;-65
2023/01/05 08:07:41;;;;;;;;;;;18.60;56.20;;;;;;6273682;22;43455;-65
2023/01/05 08:15:52;;;;;;;;;;;18.60;56.10;;;;;;6274314;22;44054;-65
2023/01/05 08:18:20;;;;;;;;;;;18.60;56.20;;;;;;6272610;22;43481;-65
2023/01/05 08:20:58;;;;;;;;;;;18.60;56.10;;;;;;6273691;22;44034;-65
2023/01/05 08:23:26;;;;;;;;;;;18.60;56.10;;;;;;6274045;22;43408;-65
2023/01/05 08:25:54;;;;;;;;;;;18.70;56.20;;;;;;6273230;22;43897;-66
2023/01/05 08:28:22;;;;;;;;;;;18.70;56.20;;;;;;6274282;22;43415;-65
2023/01/05 08:30:59;;;;;;;;;;;18.60;56.10;;;;;;6273192;22;44072;-65
2023/01/05 08:33:26;;;;;;;;;;;18.60;56.10;;;;;;6273844;22;43775;-65
2023/01/05 08:35:54;;;;;;;;;;;18.60;56.10;;;;;;6274115;22;43479;-65
2023/01/05 08:38:21;;;;;;;;;;;18.70;56.10;;;;;;6273035;22;43474;-63
2023/01/05 08:40:49;;;;;;;;;;;18.70;56.10;;;;;;6273122;22;44955;-66
2023/01/05 08:43:16;;;;;;;;;;;18.70;56.10;;;;;;6273557;22;43426;-65
2023/01/05 08:45:47;;;;;;;;;;;18.70;56.20;;;;;;6273066;22;43383;-65
2023/01/05 08:48:14;;;;;;;;;;;18.70;56.20;;;;;;6273271;22;43434;-67
2023/01/05 08:50:42;;;;;;;;;;;18.70;56.20;;;;;;6272997;22;43779;-64
2023/01/05 08:53:09;;;;;;;;;;;18.70;56.40;;;;;;6272549;22;43458;-64
2023/01/05 08:55:36;;;;;;;;;;;18.70;56.40;;;;;;6246117;22;43432;-64
2023/01/05 08:58:07;;;;;;;;;;;18.80;56.40;;;;;;6273187;22;43438;-64
2023/01/05 09:00:34;;;;;;;;;;;18.80;56.30;;;;;;6272280;22;43753;-64
2023/01/05 09:03:02;;;;;;;;;;;18.80;56.30;;;;;;6245978;22;43899;-66
2023/01/05 09:05:29;;;;;;;;;;;18.90;56.20;;;;;;6274460;22;43394;-62
2023/01/05 09:07:56;;;;;;;;;;;19.00;56.20;;;;;;6245710;22;43489;-63
2023/01/05 09:10:24;;;;;;;;;;;19.00;56.10;;;;;;6273460;22;43773;-62
2023/01/05 09:12:51;;;;;;;;;;;19.10;56.10;;;;;;6273238;22;43466;-62
2023/01/05 09:15:18;;;;;;;;;;;19.10;56.10;;;;;;6273245;22;43396;-63
2023/01/05 09:17:45;;;;;;;;;;;19.20;56.90;;;;;;6273338;22;43478;-65
2023/01/05 09:20:13;;;;;;;;;;;19.30;56.20;;;;;;6272823;22;44710;-64
2023/01/05 09:22:40;;;;;;;;;;;19.40;56.10;;;;;;6273264;22;43562;-63
2023/01/05 09:25:08;;;;;;;;;;;19.40;56.30;;;;;;6273182;22;43431;-63
2023/01/05 09:27:36;;;;;;;;;;;19.40;56.10;;;;;;6272910;22;43598;-61
2023/01/05 09:30:04;;;;;;;;;;;19.50;56.20;;;;;;6272958;22;44708;-62
2023/01/05 09:32:31;;;;;;;;;;;19.60;56.00;;;;;;6273117;22;43412;-63
2023/01/05 09:34:58;;;;;;;;;;;19.60;56.00;;;;;;6273247;22;43439;-63
2023/01/05 09:37:26;;;;;;;;;;;19.70;55.90;;;;;;6273303;22;43411;-63
2023/01/05 09:39:53;;;;;;;;;;;19.70;55.90;;;;;;6272750;22;44015;-63
2023/01/05 09:42:22;;;;;;;;;;;19.80;55.80;;;;;;6272069;22;43492;-63
2023/01/05 09:44:51;;;;;;;;;;;19.80;55.50;;;;;;6273101;22;43398;-62
2023/01/05 09:47:24;;;;;;;;;;;19.90;55.40;;;;;;6272987;22;43553;-62
2023/01/05 09:49:52;;;;;;;;;;;20.00;55.40;;;;;;6272372;22;44125;-63
2023/01/05 09:52:21;;;;;;;;;;;20.10;55.30;;;;;;6273052;22;43399;-62
2023/01/05 09:54:48;;;;;;;;;;;20.10;55.20;;;;;;6273245;22;43373;-63
2023/01/05 09:57:21;;;;;;;;;;;20.20;55.00;;;;;;6272393;22;43510;-64
2023/01/05 09:59:50;;;;;;;;;;;20.20;55.10;;;;;;6272894;22;44017;-64
2023/01/05 10:02:18;;;;;;;;;;;20.20;55.00;;;;;;6272453;22;43574;-65
2023/01/05 10:04:46;;;;;;;;;;;20.30;55.00;;;;;;6272952;22;43410;-63
2023/01/05 10:07:28;;;;;;;;;;;20.30;54.90;;;;;;6272788;22;43585;-64
2023/01/05 10:10:01;;;;;;;;;;;20.40;54.90;;;;;;6272348;22;43988;-65
2023/01/05 10:15:28;;;;;;;;;;;20.50;54.80;;;;;;6273748;22;43446;-65
2023/01/05 10:17:55;;;;;;;;;;;20.50;54.60;;;;;;6272281;22;43569;-64
2023/01/05 10:20:52;;;;;;;;;;;20.60;54.60;;;;;;6272722;22;45025;-65
2023/01/05 10:23:31;;;;;;;;;;;20.60;54.70;;;;;;6163195;22;43478;-64
2023/01/05 10:26:08;;;;;;;;;;;20.70;54.70;;;;;;6273337;22;43320;-65
2023/01/05 10:28:43;;;;;;;;;;;20.70;54.60;;;;;;6272643;22;43327;-65
2023/01/05 10:31:21;;;;;;;;;;;20.70;54.50;;;;;;6272239;22;45027;-63
2023/01/05 10:33:48;;;;;;;;;;;20.80;54.50;;;;;;6272554;22;43436;-65
2023/01/05 10:36:23;;;;;;;;;;;20.80;54.50;;;;;;6273094;22;43403;-64
2023/01/05 10:39:13;;;;;;;;;;;20.80;54.40;;;;;;6273583;22;43470;-65
2023/01/05 10:41:52;;;;;;;;;;;20.90;54.40;;;;;;6274493;22;45238;-64
2023/01/05 10:44:26;;;;;;;;;;;20.90;54.40;;;;;;6274489;22;44291;-63
2023/01/05 10:46:53;;;;;;;;;;;20.90;54.40;;;;;;6274141;22;43402;-62
2023/01/05 10:49:25;;;;;;;;;;;21.00;54.50;;;;;;6274097;22;43604;-63
2023/01/05 10:51:53;;;;;;;;;;;21.00;54.40;;;;;;6273935;22;43999;-62
2023/01/05 10:54:32;;;;;;;;;;;21.00;54.50;;;;;;6274094;22;43391;-63
2023/01/05 10:57:22;;;;;;;;;;;21.00;54.50;;;;;;6274642;22;43328;-63
2023/01/05 10:59:56;;;;;;;;;;;21.00;54.40;;;;;;6262606;22;43420;-64
2023/01/05 11:02:25;;;;;;;;;;;21.00;54.50;;;;;;6273969;22;44639;-64
2023/01/05 11:04:54;;;;;;;;;;;21.00;54.50;;;;;;6274244;22;43467;-63
2023/01/05 11:07:22;;;;;;;;;;;21.00;55.10;;;;;;6273226;22;43446;-64
2023/01/05 11:09:49;;;;;;;;;;;21.00;54.50;;;;;;6274112;22;43416;-64
2023/01/05 11:12:21;;;;;;;;;;;21.10;54.60;;;;;;6274030;22;43849;-65
2023/01/05 11:14:51;;;;;;;;;;;21.10;54.50;;;;;;6273577;22;43433;-65
2023/01/05 11:17:26;;;;;;;;;;;21.10;54.50;;;;;;6274458;22;43394;-63
2023/01/05 11:19:55;;;;;;;;;;;21.10;54.50;;;;;;6272872;22;43589;-64
2023/01/05 11:22:43;;;;;;;;;;;21.20;54.50;;;;;;6246310;22;44943;-64
2023/01/05 11:25:19;;;;;;;;;;;21.20;54.40;;;;;;6273860;22;43330;-63
2023/01/05 11:28:03;;;;;;;;;;;21.20;54.40;;;;;;6273759;22;43400;-64
2023/01/05 11:30:32;;;;;;;;;;;21.20;54.40;;;;;;6246825;22;43391;-64
2023/01/05 11:33:01;;;;;;;;;;;21.20;54.50;;;;;;6274025;22;43978;-65
2023/01/05 11:35:35;;;;;;;;;;;21.20;54.50;;;;;;6273662;22;43724;-66
2023/01/05 11:38:03;;;;;;;;;;;21.20;54.50;;;;;;6274679;22;43431;-65
2023/01/05 11:40:32;;;;;;;;;;;21.30;54.50;;;;;;6274199;22;43411;-64
2023/01/05 11:43:08;;;;;;;;;;;21.20;54.50;;;;;;6272965;22;43783;-63
2023/01/05 11:45:49;;;;;;;;;;;21.30;54.50;;;;;;6273937;22;43395;-65
2023/01/05 11:48:19;;;;;;;;;;;21.30;54.50;;;;;;6273386;22;43336;-64
2023/01/05 11:50:50;;;;;;;;;;;21.30;54.40;;;;;;6273595;22;43418;-64
2023/01/05 11:53:21;;;;;;;;;;;21.30;54.50;;;;;;6273918;22;44589;-63
2023/01/05 11:55:57;;;;;;;;;;;21.30;54.50;;;;;;6269602;22;43433;-64
2023/01/05 11:58:25;;;;;;;;;;;21.30;54.50;;;;;;6274153;22;43436;-65
2023/01/05 12:01:11;;;;;;;;;;;21.30;54.60;;;;;;6272371;22;43855;-63
2023/01/05 12:03:52;;;;;;;;;;;21.30;54.50;;;;;;6271492;22;44380;-64
2023/01/05 12:06:31;;;;;;;;;;;21.30;54.50;;;;;;6273627;22;43345;-64
2023/01/05 12:09:13;;;;;;;;;;;21.30;54.60;;;;;;6272798;22;43965;-64
2023/01/05 12:12:06;;;;;;;;;;;21.30;54.50;;;;;;6273892;22;43399;-64
2023/01/05 12:14:43;;;;;;;;;;;21.30;54.60;;;;;;6268234;22;44010;-65
2023/01/05 12:17:14;;;;;;;;;;;21.30;54.70;;;;;;6272707;22;43415;-65
2023/01/05 12:19:56;;;;;;;;;;;21.30;54.60;;;;;;6272749;22;43366;-65
2023/01/05 12:22:43;;;;;;;;;;;21.30;54.80;;;;;;6274419;22;43541;-63
2023/01/05 12:25:14;;;;;;;;;;;21.30;54.80;;;;;;6273132;22;45285;-64
2023/01/05 12:27:47;;;;;;;;;;;21.30;54.90;;;;;;6273863;22;43363;-64
2023/01/05 12:30:21;;;;;;;;;;;21.20;54.80;;;;;;6243413;22;43517;-65
2023/01/05 12:33:23;;;;;;;;;;;21.30;55.00;;;;;;6273497;22;43581;-65
2023/01/05 12:36:29;;;;;;;;;;;21.20;55.00;;;;;;6250948;22;43755;-67
2023/01/05 12:39:13;;;;;;;;;;;21.20;55.00;;;;;;6272487;22;43391;-66
2023/01/05 12:41:55;;;;;;;;;;;21.30;55.00;;;;;;6273564;22;43428;-66
2023/01/05 12:44:25;;;;;;;;;;;21.20;55.00;;;;;;6273622;22;43531;-66
2023/01/05 12:47:16;;;;;;;;;;;21.30;55.00;;;;;;6273044;22;44934;-66
2023/01/05 12:49:47;;;;;;;;;;;21.30;55.00;;;;;;6257146;22;43367;-66
2023/01/05 12:52:27;;;;;;;;;;;21.30;55.00;;;;;;6272867;22;43450;-65
2023/01/05 12:55:15;;;;;;;;;;;21.20;55.00;;;;;;6274211;22;43371;-65
2023/01/05 12:57:52;;;;;;;;;;;21.30;55.00;;;;;;6273624;22;44032;-67
2023/01/05 13:00:20;;;;;;;;;;;21.30;55.00;;;;;;6272358;22;43614;-66
2023/01/05 13:02:53;;;;;;;;;;;21.30;55.00;;;;;;6273949;22;43379;-66
2023/01/05 13:05:51;;;;;;;;;;;21.30;55.00;;;;;;6270358;22;43367;-65
2023/01/05 13:08:25;;;;;;;;;;;21.30;55.00;;;;;;6272697;22;43855;-66
2023/01/05 13:10:58;;;;;;;;;;;21.40;55.00;;;;;;6270903;22;43359;-66
2023/01/05 13:13:34;;;;;;;;;;;21.40;54.80;;;;;;6271693;22;43402;-66
2023/01/05 13:16:22;;;;;;;;;;;21.40;54.80;;;;;;6272887;22;43344;-66
2023/01/05 13:18:56;;;;;;;;;;;21.40;54.80;;;;;;6272220;22;44930;-66
2023/01/05 13:21:25;;;;;;;;;;;21.40;54.90;;;;;;6271726;22;43731;-66
2023/01/05 13:23:54;;;;;;;;;;;21.40;54.80;;;;;;6273063;22;43424;-66
2023/01/05 13:26:24;;;;;;;;;;;21.40;54.80;;;;;;6272661;22;43849;-66
2023/01/05 13:28:54;;;;;;;;;;;21.40;54.80;;;;;;6271734;22;44920;-65
2023/01/05 13:31:28;;;;;;;;;;;21.40;54.90;;;;;;6272315;22;43408;-65
2023/01/05 13:34:05;;;;;;;;;;;21.40;55.00;;;;;;6272717;22;43416;-66
2023/01/05 13:36:51;;;;;;;;;;;21.40;54.90;;;;;;6272479;22;43378;-66
2023/01/05 13:39:18;;;;;;;;;;;21.40;54.80;;;;;;6272400;22;43719;-65
2023/01/05 13:41:54;;;;;;;;;;;21.50;54.90;;;;;;6270949;22;43413;-65
2023/01/05 13:44:33;;;;;;;;;;;21.50;54.80;;;;;;6273441;22;43387;-66
2023/01/05 13:47:39;;;;;;;;;;;21.50;54.90;;;;;;6272330;22;43383;-66
2023/01/05 13:50:30;;;;;;;;;;;21.40;54.80;;;;;;6147242;23;44991;-65
2023/01/05 13:53:00;;;;;;;;;;;21.40;54.80;;;;;;6147718;23;43405;-66
2023/01/05 13:55:28;;;;;;;;;;;21.50;54.80;;;;;;6230151;22;43509;-66
2023/01/05 13:57:55;;;;;;;;;;;21.50;54.80;;;;;;6273088;22;43499;-66
2023/01/05 14:00:38;;;;;;;;;;;21.50;54.80;;;;;;6272102;22;44660;-66
2023/01/05 14:03:08;;;;;;;;;;;21.50;54.80;;;;;;6271334;22;43351;-66
2023/01/05 14:05:40;;;;;;;;;;;21.50;54.70;;;;;;6272944;22;43444;-66
2023/01/05 14:08:22;;;;;;;;;;;21.50;54.70;;;;;;6272715;22;43422;-65
2023/01/05 14:11:07;;;;;;;;;;;21.50;54.50;;;;;;6272496;22;43957;-65
2023/01/05 14:13:42;;;;;;;;;;;21.50;54.40;;;;;;6273961;22;43831;-65
2023/01/05 14:16:29;;;;;;;;;;;21.60;54.50;;;;;;6273109;22;43403;-65
2023/01/05 14:19:08;;;;;;;;;;;21.50;54.40;;;;;;6273796;22;43532;-66
2023/01/05 14:21:48;;;;;;;;;;;21.50;54.40;;;;;;6273958;22;43751;-65
2023/01/05 14:24:38;;;;;;;;;;;21.50;54.40;;;;;;6272249;22;43579;-66
2023/01/05 14:27:11;;;;;;;;;;;21.50;54.50;;;;;;6275199;22;43519;-65
2023/01/05 14:29:47;;;;;;;;;;;21.50;54.40;;;;;;6274402;22;43445;-65
2023/01/05 14:32:32;;;;;;;;;;;21.50;54.50;;;;;;6273138;22;45012;-65
2023/01/05 14:35:19;;;;;;;;;;;21.50;54.50;;;;;;6246369;22;43777;-66
2023/01/05 14:37:52;;;;;;;;;;;21.50;54.60;;;;;;6273036;22;43378;-66
2023/01/05 14:40:38;;;;;;;;;;;21.40;54.60;;;;;;6273697;22;43465;-65
2023/01/05 14:43:19;;;;;;;;;;;21.40;54.80;;;;;;6245190;22;43787;-66
2023/01/05 14:46:05;;;;;;;;;;;21.30;54.80;;;;;;6273113;22;43354;-66
2023/01/05 14:48:33;;;;;;;;;;;21.30;55.60;;;;;;6274650;22;43435;-66
2023/01/05 14:51:17;;;;;;;;;;;21.30;54.90;;;;;;6272887;22;43467;-66
2023/01/05 14:53:46;;;;;;;;;;;21.30;55.00;;;;;;6273657;22;45044;-65
2023/01/05 14:56:16;;;;;;;;;;;21.30;55.00;;;;;;6273710;22;43356;-66
2023/01/05 14:58:43;;;;;;;;;;;21.30;55.00;;;;;;6272980;22;43406;-66
2023/01/05 15:01:16;;;;;;;;;;;21.30;55.00;;;;;;6273713;22;43575;-66
2023/01/05 15:03:50;;;;;;;;;;;21.30;55.00;;;;;;6273646;22;43838;-65
2023/01/05 15:06:28;;;;;;;;;;;21.30;55.00;;;;;;6273068;22;43741;-66
2023/01/05 15:08:58;;;;;;;;;;;21.30;55.00;;;;;;6273841;22;43395;-65
2023/01/05 15:11:37;;;;;;;;;;;21.30;54.90;;;;;;6273806;22;43634;-66
2023/01/05 15:14:33;;;;;;;;;;;21.30;54.90;;;;;;6273266;22;44683;-67
2023/01/05 15:17:19;;;;;;;;;;;21.30;54.80;;;;;;6273155;22;43727;-66
2023/01/05 15:19:56;;;;;;;;;;;21.40;54.80;;;;;;6273008;22;43406;-67
2023/01/05 15:22:29;;;;;;;;;;;21.30;54.80;;;;;;6273604;22;43399;-66